Main page
METAR-TAF:

METAR-TAF

Airports :

Niederstetten Air Base

Niederstetten, Germany

latitude: 49-24N, longitude: 009-58E, elevation: 468 m

Current weather observation

The report was made 26 minutes ago, at 23:20 UTC
Wind 5 kt from the Southwest
Temperature 19°C
Humidity 64%
Pressure 1012 hPa
Visibility 10 km or more
Few clouds at a height of 8000 ft
Scattered clouds at a height of 14000 ft
Broken clouds at a height of 22000 ft

METAR: ETHN 202320Z 23005KT 9999 FEW080 SCT140 BKN220 19/12 Q1012 BLU+

Time: 01:46 (23:46 UTC)

Forecast

The report was made 14 hours and 13 minutes ago, at 09:33 UTC
Forecast valid from 20 at 08 UTC to 20 at 17 UTC
Wind 5 kt from the East
Visibility: 1000 m
Few clouds at a height of 6000 ft
Scattered clouds at a height of 12000 ft
Scattered clouds at a height of 23000 ft

TAF: ETHN 200933Z 2008/2017 09005KT 9999 NSW FEW060 SCT120 SCT230 CANCEL 1000

Weather observations and forecasts of more than 4000 airports (METAR and TAF reports).

The available stations are represented by yellow and red dots on the map.

Hover mouse over dot to see the name of the station.

Then click to see weather observations and forecasts.

To change the map : click on the green buttons with a black cross to zoom in, on the green button with a dash to zoom out, or on the green arrows for adjacent maps.


METAR-TAF: